• Join FlightAware (Why Join?)
  • Login
  • US Flag 
 
09:42PM EST


 

Airport Tracker/Info


-or-


 

Live Flight TrackerFlight Track Log ✈ UAL4202 ✈ 15-Apr-2013 ✈ KSTL - KEWR

Flight Track Log - Related Links

Times and Time Zones

All times are in EDT time to prevent confusion due to time zone crossing. See the UAL4202 flight status page for this flight to view local times or setup timezone preferences in your user account.

Time Position Orientation Groundspeed Altitude Reporting Facility
EDT Latitude Longitude Course Direction KTS MPH feet Rate Location/Type
08:31PM 38.7686 -90.3650 331° Northwest 164 189 2,000  Level FAA TRACON SMA TRACON (SMA)
08:32PM 38.7886 -90.3694 350° North 183 211 2,700 1,980 Climbing FAA TRACON SMA TRACON (SMA)
08:32PM 38.8058 -90.3722 353° North 200 230 3,300 1,500 Climbing FAA TRACON SMA TRACON (SMA)
08:32PM 38.8244 -90.3664 14° North 227 261 3,700 1,440 Climbing FAA TRACON SMA TRACON (SMA)
08:33PM 38.8461 -90.3447 38° Northeast 254 292 4,300 1,980 Climbing FAA TRACON SMA TRACON (SMA)
08:33PM 38.8619 -90.3228 47° Northeast 270 311 5,000 1,920 Climbing FAA TRACON SMA TRACON (SMA)
08:33PM 38.8664 -90.2931 79° East 283 326 5,600 2,040 Climbing FAA TRACON SMA TRACON (SMA)
08:34PM 38.8647 -90.2625 94° East 283 326 6,400 2,760 Climbing FAA TRACON SMA TRACON (SMA)
08:34PM 38.8614 -90.2236 96° East 284 327 7,400 2,400 Climbing FAA TRACON SMA TRACON (SMA)
08:34PM 38.8575 -90.1917 99° East 291 335 8,000 1,860 Climbing FAA TRACON SMA TRACON (SMA)
08:35PM 38.8539 -90.1592 98° East 299 344 8,700 2,280 Climbing FAA TRACON SMA TRACON (SMA)
08:35PM 38.8494 -90.1178 98° East 306 352 9,500 1,920 Climbing FAA TRACON SMA TRACON (SMA)
08:35PM 38.8461 -90.0831 97° East 317 365 10,000 1,140 Climbing FAA TRACON SMA TRACON (SMA)
08:36PM 38.8417 -90.0461 99° East 333 383 10,300 1,020 Climbing FAA TRACON SMA TRACON (SMA)
08:36PM 38.8369 -89.9981 97° East 354 407 10,700 1,200 Climbing FAA TRACON SMA TRACON (SMA)
08:36PM 38.8328 -89.9572 97° East 370 426 11,100 840 Climbing FAA TRACON SMA TRACON (SMA)
08:37PM 38.8278 -89.9147 99° East 385 443 11,300 1,200 Climbing FAA TRACON SMA TRACON (SMA)
08:37PM 38.8225 -89.8608 97° East 398 458 11,900 1,620 Climbing FAA TRACON SMA TRACON (SMA)
08:37PM 38.8181 -89.8167 97° East 403 464 12,400 1,740 Climbing FAA TRACON SMA TRACON (SMA)
08:38PM 38.8131 -89.7733 98° East 404 465 13,100 1,980 Climbing FAA TRACON SMA TRACON (SMA)
08:38PM 38.8072 -89.7181 98° East 406 467 13,700 1,620 Climbing FAA TRACON SMA TRACON (SMA)
08:38PM 38.8031 -89.6744 97° East 404 465 14,200 1,260 Climbing FAA TRACON SMA TRACON (SMA)
08:39PM 38.7983 -89.6297 98° East 407 468 14,600 1,500 Climbing FAA TRACON SMA TRACON (SMA)
08:39PM 38.7922 -89.5742 98° East 410 472 15,200 1,500 Climbing FAA TRACON SMA TRACON (SMA)
08:39PM 38.7883 -89.5294 96° East 414 476 15,600 1,320 Climbing FAA TRACON SMA TRACON (SMA)
08:40PM 38.7889 -89.4836 89° East 417 480 16,100 1,500 Climbing FAA TRACON SMA TRACON (SMA)
08:40PM 38.7928 -89.4261 85° East 421 484 16,600 1,320 Climbing FAA TRACON SMA TRACON (SMA)
08:40PM 38.8000 -89.3803 79° East 426 490 17,000 1,020 Climbing FAA TRACON SMA TRACON (SMA)
08:41PM 38.8064 -89.3336 80° East 429 494 17,300 1,020 Climbing FAA TRACON SMA TRACON (SMA)
08:41PM 38.8139 -89.2747 81° East 436 502 17,700 1,380 Climbing FAA TRACON SMA TRACON (SMA)
08:41PM 38.8211 -89.2278 79° East 437 503 18,200 1,200 Climbing FAA TRACON SMA TRACON (SMA)
08:42PM 38.8272 -89.1794 81° East 441 507 18,500 1,260 Climbing FAA TRACON SMA TRACON (SMA)
08:42PM 38.8358 -89.1192 80° East 446 513 19,100 1,500 Climbing FAA TRACON SMA TRACON (SMA)
08:42PM 38.8425 -89.0714 80° East 446 513 19,500 600 Climbing FAA TRACON SMA TRACON (SMA)
08:43PM 38.8425 -89.0714 90° East 446 513 19,500  Level FAA TRACON SMA TRACON (SMA)
08:43PM 38.8425 -89.0714 90° East 446 513 19,500 1,440 Level FAA TRACON SMA TRACON (SMA)
08:44PM 38.8706 -88.9014 78° East 448 516 21,300 1,500 Climbing Kansas City Center
08:45PM 38.8919 -88.7408 80° East 455 524 22,400 1,140 Climbing Kansas City Center
08:46PM 38.9139 -88.5592 81° East 461 531 23,700 1,140 Climbing Kansas City Center
08:47PM 38.9450 -88.4000 76° East 456 525 24,800 1,140 Climbing Kansas City Center
08:48PM 38.9856 -88.2453 71° East 462 532 26,000 1,200 Climbing Indianapolis Center
08:49PM 39.0292 -88.0894 70° East 461 531 27,200 1,200 Climbing Indianapolis Center
08:50PM 39.0725 -87.9364 70° East 457 526 28,500 1,200 Climbing Indianapolis Center
08:51PM 39.1142 -87.7825 71° East 454 522 29,700 1,200 Climbing Indianapolis Center
08:52PM 39.1567 -87.6297 70° East 451 519 31,000 1,260 Climbing Indianapolis Center
08:53PM 39.1983 -87.4744 71° East 454 522 32,300 1,200 Climbing Indianapolis Center
08:54PM 39.2414 -87.3164 71° East 461 531 33,500 1,140 Climbing Indianapolis Center
08:55PM 39.2836 -87.1592 71° East 462 532 34,700 720 Climbing Indianapolis Center
08:56PM 39.3303 -87.0019 69° East 468 539 35,000 120 Climbing Indianapolis Center
08:57PM 39.3975 -86.8464 61° Northeast 491 565 35,000  Level Indianapolis Center
08:58PM 39.4650 -86.6872 61° Northeast 500 575 35,000  Level Indianapolis Center
08:59PM 39.5456 -86.4969 61° Northeast 502 578 35,000  Level Indianapolis Center
09:00PM 39.6111 -86.3383 62° Northeast 499 574 35,000  Level Indianapolis Center
09:01PM 39.6792 -86.1789 61° Northeast 502 578 35,000  Level Indianapolis Center
09:02PM 39.7447 -86.0175 62° Northeast 503 579 35,000  Level Indianapolis Center
09:03PM 39.8150 -85.8489 61° Northeast 504 580 35,000  Level Indianapolis Center
09:04PM 39.8828 -85.6861 61° Northeast 506 582 35,000  Level Indianapolis Center
09:05PM 39.9489 -85.5233 62° Northeast 504 580 35,000  Level Indianapolis Center
09:06PM 40.0142 -85.3597 62° Northeast 505 581 35,000  Level Indianapolis Center
09:07PM 40.0800 -85.1967 62° Northeast 504 580 35,000  Level Indianapolis Center
09:08PM 40.1472 -85.0336 62° Northeast 504 580 35,000  Level Indianapolis Center
09:09PM 40.2119 -84.8711 62° Northeast 497 572 35,000  Level Indianapolis Center
09:10PM 40.2772 -84.7086 62° Northeast 499 574 35,000  Level Indianapolis Center
09:11PM 40.3414 -84.5433 63° Northeast 503 579 35,000  Level Indianapolis Center
09:12PM 40.4075 -84.3769 62° Northeast 507 583 35,000  Level Indianapolis Center
09:13PM 40.4728 -84.2103 63° Northeast 507 583 35,000  Level Indianapolis Center
09:14PM 40.5381 -84.0428 63° Northeast 509 586 35,000  Level Indianapolis Center
09:15PM 40.6028 -83.8742 63° Northeast 509 586 35,000  Level Indianapolis Center
09:16PM 40.6669 -83.7067 63° Northeast 509 586 35,000  Level Indianapolis Center
09:17PM 40.7022 -83.6150 63° Northeast 512 589 35,000  Level Cleveland Center
09:18PM 40.7669 -83.4453 63° Northeast 505 581 35,000  Level Cleveland Center
09:19PM 40.8317 -83.2781 63° Northeast 505 581 35,000  Level Cleveland Center
09:20PM 40.8917 -83.1075 65° Northeast 500 575 35,000  Level Cleveland Center
09:21PM 40.9558 -82.9450 62° Northeast 500 575 35,000  Level Cleveland Center
09:22PM 41.0175 -82.7764 64° Northeast 501 577 35,000  Level Cleveland Center
09:23PM 41.0789 -82.6078 64° Northeast 501 577 35,000  Level Cleveland Center
09:24PM 41.1403 -82.4414 64° Northeast 501 577 35,000  Level Cleveland Center
09:25PM 41.1883 -82.2911 67° East 501 577 35,000  Level Cleveland Center
09:26PM 41.2203 -82.1097 77° East 495 570 35,000  Level Cleveland Center
09:27PM 41.2517 -81.9281 77° East 501 577 35,000  Level Cleveland Center
09:28PM 41.2786 -81.7547 78° East 501 577 35,000  Level Cleveland Center
09:29PM 41.3094 -81.5700 77° East 501 577 35,000  Level Cleveland Center
09:30PM 41.3381 -81.3686 79° East 501 577 35,000  Level Cleveland Center
09:31PM 41.3664 -81.1892 78° East 501 577 35,000  Level Cleveland Center
09:32PM 41.3964 -81.0067 78° East 501 577 35,000  Level Cleveland Center
09:33PM 41.4197 -80.8433 79° East 506 582 35,000  Level Cleveland Center
09:34PM 41.4472 -80.6608 79° East 506 582 35,000  Level Cleveland Center
09:35PM 41.4658 -80.4778 82° East 501 577 35,000  Level Cleveland Center
09:36PM 41.4739 -80.2756 87° East 501 577 35,000  Level Cleveland Center
09:37PM 41.4775 -80.0897 88° East 501 577 35,000  Level Cleveland Center
09:38PM 41.4806 -79.9097 89° East 496 571 35,000  Level Cleveland Center
09:39PM 41.4856 -79.7239 88° East 496 571 35,000  Level Cleveland Center
09:40PM 41.4903 -79.5381 88° East 496 571 35,000  Level Cleveland Center
09:41PM 41.4928 -79.3550 89° East 496 571 35,000  Level Cleveland Center
09:42PM 41.4969 -79.1719 88° East 496 571 35,000  Level Cleveland Center
09:43PM 41.5008 -78.9917 88° East 496 571 35,000  Level Cleveland Center
09:44PM 41.5044 -78.8058 88° East 496 571 35,000  Level Cleveland Center
09:45PM 41.5056 -78.6228 89° East 496 571 35,000 -540 Level Cleveland Center
09:47PM 41.5117 -78.2708 89° East 499 574 33,500 -1,260 Descending New York Center
09:48PM 41.5125 -78.0908 90° East 499 574 31,400 -1,260 Descending New York Center
09:49PM 41.5050 -77.9069 93° East 499 574 31,000 -240 Descending New York Center
09:50PM 41.4794 -77.7408 102° East 505 581 31,000  Level New York Center
09:51PM 41.4544 -77.5583 100° East 505 581 31,000  Level New York Center
09:52PM 41.4242 -77.3586 101° East 505 581 31,000  Level New York Center
09:53PM 41.3967 -77.1761 101° East 505 581 31,000  Level New York Center
09:54PM 41.3686 -76.9939 102° East 505 581 31,000 -900 Level New York Center
09:55PM 41.3425 -76.8144 101° East 505 581 29,200 -2,340 Descending New York Center
09:56PM 41.3014 -76.6397 107° East 500 575 26,400 -2,880 Descending New York Center
09:57PM 41.2514 -76.4669 111° Southeast 500 575 23,600 -2,700 Descending New York Center
09:58PM 41.2092 -76.3033 109° East 494 568 21,100 -2,580 Descending New York Center
09:59PM 41.1683 -76.1483 109° East 460 529 18,500 -2,340 Descending New York Center
10:00PM 41.1308 -76.0078 109° East 439 505 16,500 -2,280 Descending New York Center
10:01PM 41.0897 -75.8531 109° East 417 480 14,000 -1,800 Descending New York Center
10:02PM 41.0517 -75.7181 110° East 405 466 13,000 -600 Descending New York Center
10:03PM 41.0136 -75.5833 110° East 393 452 12,800 -960 Descending New York Center
10:04PM 40.9772 -75.4517 110° East 393 452 11,100 -1,260 Descending New York Center
10:05PM 40.9461 -75.3422 111° Southeast 350 403 10,300 -1,260 Descending New York Center
10:06PM 40.9222 -75.2556 110° East 294 338 8,600 -1,620 Descending New York Center
10:07PM 40.8947 -75.1606 111° Southeast 276 318 7,200 -840 Descending New York Center
10:08PM 40.8650 -75.0569 111° Southeast 276 318 7,000 -120 Descending New York Center
10:09PM 40.8394 -74.9622 110° East 276 318 7,000 -120 Level New York Center
10:10PM 40.8239 -74.8681 102° East 276 318 6,800 -540 Descending New York Center
10:11PM 40.8589 -74.7603 67° East 276 318 6,000 -480 Descending New York Center
10:12PM 40.8886 -74.6769 65° Northeast 281 323 5,900 -600 Descending New York Center
10:13PM 40.9233 -74.5719 66° East 286 329 4,900 -960 Descending New York Center
10:14PM 40.9283 -74.4842 86° East 271 312 4,000 -840 Descending New York Center
10:15PM 40.9106 -74.3817 103° East 264 304 3,300 -720 Descending New York Center
10:15PM 40.9000 -74.3333 106° East 250 288 3,000 -240 Descending New York TRACON
10:16PM 40.8833 -74.2500 105° East 249 287 3,000  Level New York TRACON
10:17PM 40.8667 -74.1667 105° East 223 257 3,000 -60 Level New York TRACON
10:18PM 40.8500 -74.1167 114° Southeast 176 203 2,900 -300 Descending New York TRACON
10:19PM 40.8167 -74.0833 143° Southeast 163 188 2,500 -660 Descending New York TRACON
10:20PM 40.7667 -74.1167 207° Southwest 171 197 1,700 -900 Descending New York TRACON
10:21PM 40.7333 -74.1333 201° Southwest 125 144 900 -780 Descending New York TRACON
10:22PM 40.7000 -74.1500 201° Southwest 122 140 200 -720 Descending New York TRACON
10:24PM 40.6833 -74.1667 102° East  Level FlightAware Approximate
10:31PM 40.6925 -74.1687 102° East  Level Estimated
10:32PM 40.6925 -74.1687 102° East  Level Estimated